Hunter Army Airfield

Airport
ICAO code: 
KSVN
IATA Code: 
SVN
Summary
ICAO Region: 
NAM
Territory: 
Location: 
Savannah, Georgia,
Serving: 
Savannah
Elevation: 
42 ft
Coordinates: 
Aerial View: 
32° 0' 40.576" N, 81° 8' 47.287" W
Metar
Observation
KSVN 021356Z AUTO 26004KT 10SM CLR 12/08 A3013 RMK AO2 SLP206 T01180081 $
Station
Hunter U. S. Army Airfield
Date/Time
2021-12-02 13:56:00
Wind direction
260°
Wind speed
04 kts
Lowest cloud amount
n/a
Temperature
11.8°C
Dew point
8.1°C
Humidity
78%
Weather condition
n/a

Description

Hunter Army Airfield, located in Savannah, Georgia, United States, is a military airfield and subordinate installation to Fort Stewart located in Hinesville, Georgia.

Climatology

Humid “subtropical” climate (Köppen climate classification Cfa) - characterized by hot, humid summers and cool winters. Significant amounts of precipitation occur in all seasons in most areas.

Runways

Designator Length Width Surface Rops
10/28 3467 61 ASP Yes/Yes
Airport map: 
Aerial View: 

SKYbrary Partners:

Safety knowledge contributed by: